createdAt,value
2023-05-19T00:00:25.753Z,7.78
2023-05-19T00:03:14.728Z,7.79
2023-05-19T00:05:46.813Z,7.81
2023-05-19T00:08:17.085Z,7.84
2023-05-19T00:10:48.520Z,7.87
2023-05-19T00:13:20.633Z,7.88
2023-05-19T00:15:49.919Z,7.89
2023-05-19T00:18:18.181Z,7.90
2023-05-19T00:20:46.684Z,7.89
2023-05-19T00:23:17.730Z,7.88
2023-05-19T00:25:46.226Z,7.86
2023-05-19T00:28:14.270Z,7.85
2023-05-19T00:30:42.944Z,7.86
2023-05-19T00:33:11.065Z,7.85
2023-05-19T00:35:40.833Z,7.86
2023-05-19T00:38:08.825Z,7.84
2023-05-19T00:40:36.855Z,7.84
2023-05-19T00:43:08.665Z,7.82
2023-05-19T00:45:36.735Z,7.83
2023-05-19T00:48:06.426Z,7.85
2023-05-19T00:50:35.147Z,7.87
2023-05-19T00:53:03.341Z,7.88
2023-05-19T00:55:31.518Z,7.88
2023-05-19T00:58:00.401Z,7.90
2023-05-19T01:00:28.389Z,7.92
2023-05-19T01:02:57.233Z,7.91
2023-05-19T01:05:25.480Z,7.90
2023-05-19T01:07:55.766Z,7.89
2023-05-19T01:10:23.829Z,7.88
2023-05-19T01:12:51.794Z,7.85
2023-05-19T01:15:19.749Z,7.83
2023-05-19T01:18:11.378Z,7.79
2023-05-19T01:20:46.547Z,7.76
2023-05-19T01:23:37.170Z,7.75
2023-05-19T01:26:26.662Z,7.75
2023-05-19T01:29:22.976Z,7.74
2023-05-19T01:31:51.024Z,7.72
2023-05-19T01:34:19.054Z,7.70
2023-05-19T01:36:48.728Z,7.71
2023-05-19T01:39:17.103Z,7.72
2023-05-19T01:41:45.194Z,7.75
2023-05-19T01:44:13.195Z,7.76
2023-05-19T01:46:41.189Z,7.77
2023-05-19T01:49:09.252Z,7.78
2023-05-19T01:51:37.331Z,7.77
2023-05-19T01:54:06.839Z,7.78
2023-05-19T01:57:11.510Z,7.78
2023-05-19T02:00:08.033Z,7.77
2023-05-19T02:02:43.642Z,7.76
2023-05-19T02:05:18.992Z,7.75
2023-05-19T02:08:06.850Z,7.73
2023-05-19T02:10:34.869Z,7.69
2023-05-19T02:13:04.923Z,7.66
2023-05-19T02:15:39.744Z,7.62
2023-05-19T02:18:10.353Z,7.56
2023-05-19T02:20:42.648Z,7.52
2023-05-19T02:23:10.710Z,7.47
2023-05-19T02:25:38.707Z,7.43
2023-05-19T02:28:07.293Z,7.39
2023-05-19T02:30:35.292Z,7.37
2023-05-19T02:33:03.388Z,7.35
2023-05-19T02:35:31.383Z,7.35
2023-05-19T02:37:59.681Z,7.35
2023-05-19T02:40:27.982Z,7.38
2023-05-19T02:42:56.372Z,7.41
2023-05-19T02:45:24.660Z,7.44
2023-05-19T02:47:52.720Z,7.48
2023-05-19T02:50:22.191Z,7.50
2023-05-19T02:52:50.196Z,7.51
2023-05-19T02:55:18.278Z,7.53
2023-05-19T02:57:46.406Z,7.56
2023-05-19T03:00:15.090Z,7.59
2023-05-19T03:02:44.345Z,7.60
2023-05-19T03:05:12.596Z,7.63
2023-05-19T03:07:41.198Z,7.65
2023-05-19T03:10:09.428Z,7.66
2023-05-19T03:12:37.526Z,7.69
2023-05-19T03:15:06.155Z,7.72
2023-05-19T03:17:34.652Z,7.74
2023-05-19T03:20:02.956Z,7.78
2023-05-19T03:22:33.372Z,7.79
2023-05-19T03:25:01.484Z,7.80
2023-05-19T03:27:30.135Z,7.83
2023-05-19T03:29:58.194Z,7.88
2023-05-19T03:32:26.436Z,7.91
2023-05-19T03:34:54.493Z,7.94
2023-05-19T03:37:22.606Z,7.99
2023-05-19T03:39:50.815Z,8.04
2023-05-19T03:42:18.924Z,8.11
2023-05-19T03:44:47.076Z,8.17
2023-05-19T03:47:15.460Z,8.24
2023-05-19T03:50:02.445Z,8.34
2023-05-19T03:52:53.762Z,8.41
2023-05-19T03:55:30.107Z,8.51
2023-05-19T03:57:58.154Z,8.58
2023-05-19T04:00:26.288Z,8.63
2023-05-19T04:02:54.429Z,8.68
2023-05-19T04:05:22.588Z,8.73
2023-05-19T04:07:51.281Z,8.81
2023-05-19T04:10:19.313Z,8.79
2023-05-19T04:12:48.304Z,8.90
2023-05-19T04:15:17.172Z,8.96
2023-05-19T04:17:46.409Z,9.05
2023-05-19T04:20:14.705Z,9.14
2023-05-19T04:22:42.797Z,9.20
2023-05-19T04:25:14.370Z,9.27
2023-05-19T04:27:42.643Z,9.30
2023-05-19T04:30:12.418Z,9.33
2023-05-19T04:32:41.529Z,9.39
2023-05-19T04:35:11.392Z,9.45
2023-05-19T04:37:40.676Z,9.56
2023-05-19T04:40:11.626Z,9.90
2023-05-19T04:42:43.020Z,10.11
2023-05-19T04:45:12.988Z,10.60
2023-05-19T04:47:44.572Z,11.37
2023-05-19T04:50:13.182Z,12.19
2023-05-19T04:52:46.527Z,13.30
2023-05-19T04:55:16.093Z,14.09
2023-05-19T04:57:44.660Z,15.21
2023-05-19T05:00:18.620Z,15.86
2023-05-19T05:03:10.800Z,16.03
2023-05-19T05:05:41.690Z,16.14
2023-05-19T05:08:11.061Z,16.28
2023-05-19T05:10:42.134Z,16.46
2023-05-19T05:13:11.807Z,16.62
2023-05-19T05:15:40.694Z,16.92
2023-05-19T05:18:10.164Z,16.81
2023-05-19T05:20:38.746Z,16.72
2023-05-19T05:23:09.851Z,16.54
2023-05-19T05:25:39.354Z,16.44
2023-05-19T05:28:08.162Z,16.61
2023-05-19T05:30:41.581Z,16.46
2023-05-19T05:33:09.943Z,16.71
2023-05-19T05:35:39.961Z,16.92
2023-05-19T05:38:11.710Z,16.66
2023-05-19T05:40:39.987Z,16.43
2023-05-19T05:43:09.255Z,16.17
2023-05-19T05:45:42.147Z,16.68
2023-05-19T05:48:10.653Z,16.47
2023-05-19T05:50:39.151Z,16.22
2023-05-19T05:53:08.582Z,16.85
2023-05-19T05:55:37.736Z,16.74
2023-05-19T05:58:06.678Z,16.58
2023-05-19T06:00:37.752Z,16.37
2023-05-19T06:03:06.060Z,15.67
2023-05-19T06:05:34.616Z,15.07
2023-05-19T06:08:02.930Z,14.51
2023-05-19T06:11:09.335Z,13.93
2023-05-19T06:13:38.257Z,13.48
2023-05-19T06:16:41.349Z,13.40
2023-05-19T06:19:10.143Z,13.36
2023-05-19T06:21:38.428Z,13.26
2023-05-19T06:24:06.842Z,13.42
2023-05-19T06:26:35.112Z,13.38
2023-05-19T06:29:03.454Z,13.18
2023-05-19T06:31:33.850Z,12.97
2023-05-19T06:34:12.619Z,12.94
2023-05-19T06:36:41.669Z,12.88
2023-05-19T06:39:10.617Z,12.82
2023-05-19T06:41:38.752Z,12.97
2023-05-19T06:44:11.157Z,12.98
2023-05-19T06:46:39.369Z,13.10
2023-05-19T06:49:07.505Z,13.37
2023-05-19T06:51:38.758Z,13.29
2023-05-19T06:54:06.978Z,13.35
2023-05-19T06:56:35.307Z,13.43
2023-05-19T06:59:04.194Z,13.46
2023-05-19T07:01:36.085Z,13.42
2023-05-19T07:04:05.437Z,13.31
2023-05-19T07:06:34.190Z,13.33
2023-05-19T07:09:05.257Z,13.22
2023-05-19T07:11:34.029Z,13.22
2023-05-19T07:14:03.179Z,13.18
2023-05-19T07:16:35.843Z,13.15
2023-05-19T07:19:03.966Z,13.09
2023-05-19T07:21:32.029Z,13.27
2023-05-19T07:24:00.187Z,13.43
2023-05-19T07:26:29.333Z,13.54
2023-05-19T07:28:58.077Z,13.59
2023-05-19T07:31:26.267Z,13.58
2023-05-19T07:33:54.879Z,13.57
2023-05-19T07:36:23.076Z,13.52
2023-05-19T07:38:51.176Z,13.54
2023-05-19T07:41:19.287Z,13.45
2023-05-19T07:43:47.460Z,13.40
2023-05-19T07:46:15.745Z,13.67
2023-05-19T07:48:44.004Z,13.65
2023-05-19T07:51:12.835Z,13.58
2023-05-19T07:53:41.288Z,13.68
2023-05-19T07:56:10.242Z,13.72
2023-05-19T07:58:38.403Z,13.77
2023-05-19T08:01:06.681Z,13.76
2023-05-19T08:03:35.205Z,13.72
2023-05-19T08:06:03.697Z,13.85
2023-05-19T08:08:33.628Z,13.95
2023-05-19T08:11:04.890Z,13.87
2023-05-19T08:13:33.235Z,13.78
2023-05-19T08:16:01.430Z,13.73
2023-05-19T08:18:29.585Z,13.85
2023-05-19T08:20:57.615Z,13.87
2023-05-19T08:23:25.809Z,13.75
2023-05-19T08:25:53.978Z,13.71
2023-05-19T08:28:22.106Z,13.86
2023-05-19T08:30:51.805Z,13.70
2023-05-19T08:33:21.750Z,13.90
2023-05-19T08:35:49.752Z,14.11
2023-05-19T08:38:17.839Z,14.11
2023-05-19T08:40:46.973Z,14.05
2023-05-19T08:43:15.129Z,14.04
2023-05-19T08:45:44.555Z,14.35
2023-05-19T08:48:13.534Z,14.66
2023-05-19T08:50:42.810Z,14.72
2023-05-19T08:53:33.416Z,14.89
2023-05-19T08:56:10.833Z,15.05
2023-05-19T08:58:40.683Z,15.09
2023-05-19T09:01:08.950Z,15.16
2023-05-19T09:03:38.334Z,15.44
2023-05-19T09:06:08.811Z,15.48
2023-05-19T09:08:37.506Z,15.63
2023-05-19T09:11:05.643Z,16.00
2023-05-19T09:13:33.924Z,16.29
2023-05-19T09:16:03.748Z,16.35
2023-05-19T09:18:32.031Z,16.80
2023-05-19T09:21:03.228Z,17.06
2023-05-19T09:23:35.445Z,16.91
2023-05-19T09:26:07.604Z,16.57
2023-05-19T09:28:36.880Z,16.47
2023-05-19T09:31:09.424Z,16.83
2023-05-19T09:33:38.660Z,16.91
2023-05-19T09:36:08.660Z,16.62
2023-05-19T09:38:37.670Z,16.68
2023-05-19T09:41:06.718Z,16.69
2023-05-19T09:43:35.018Z,16.90
2023-05-19T09:46:07.693Z,16.90
2023-05-19T09:48:36.876Z,16.65
2023-05-19T09:51:08.107Z,16.43
2023-05-19T09:53:36.539Z,16.12
2023-05-19T09:56:04.938Z,16.06
2023-05-19T09:58:35.544Z,16.13
2023-05-19T10:01:04.600Z,16.18
2023-05-19T10:03:35.651Z,16.24
2023-05-19T10:06:07.657Z,16.50
2023-05-19T10:08:36.181Z,16.04
2023-05-19T10:11:04.411Z,16.62
2023-05-19T10:13:32.449Z,16.69
2023-05-19T10:16:00.876Z,16.91
2023-05-19T10:18:29.925Z,17.27
2023-05-19T10:20:58.345Z,17.57
2023-05-19T10:23:26.992Z,17.73
2023-05-19T10:25:56.760Z,17.96
2023-05-19T10:28:26.752Z,18.02
2023-05-19T10:30:56.779Z,17.95
2023-05-19T10:33:36.026Z,18.02
2023-05-19T10:36:23.177Z,18.12
2023-05-19T10:39:01.141Z,17.82
2023-05-19T10:41:37.717Z,17.93
2023-05-19T10:44:31.006Z,17.85
2023-05-19T10:46:59.085Z,17.75
2023-05-19T10:49:27.136Z,18.04
2023-05-19T10:51:56.498Z,17.95
2023-05-19T10:54:46.602Z,18.17
2023-05-19T10:57:16.647Z,18.21
2023-05-19T10:59:44.935Z,18.17
2023-05-19T11:02:40.118Z,17.99
2023-05-19T11:05:14.819Z,17.66
2023-05-19T11:07:57.122Z,17.22
2023-05-19T11:10:25.428Z,16.71
2023-05-19T11:12:53.400Z,16.23
2023-05-19T11:15:21.369Z,15.86
2023-05-19T11:17:49.479Z,15.48
2023-05-19T11:20:30.933Z,15.28
2023-05-19T11:23:09.752Z,15.23
2023-05-19T11:25:52.466Z,15.43
2023-05-19T11:28:28.323Z,15.47
2023-05-19T11:30:58.040Z,15.75
2023-05-19T11:33:28.883Z,15.90
2023-05-19T11:35:59.811Z,15.96
2023-05-19T11:38:28.590Z,15.96
2023-05-19T11:40:56.950Z,15.89
2023-05-19T11:43:25.919Z,15.53
2023-05-19T11:45:54.686Z,15.32
2023-05-19T11:48:23.026Z,15.52
2023-05-19T11:50:51.567Z,15.46
2023-05-19T11:53:22.757Z,15.12
2023-05-19T11:55:51.302Z,14.80
2023-05-19T11:58:19.819Z,14.94
2023-05-19T12:00:48.132Z,15.01
2023-05-19T12:03:17.722Z,15.17
2023-05-19T12:05:47.423Z,15.30
2023-05-19T12:08:19.044Z,15.31
2023-05-19T12:10:53.124Z,15.16
2023-05-19T12:13:22.995Z,15.29
2023-05-19T12:15:52.570Z,15.18
2023-05-19T12:18:21.378Z,15.32
2023-05-19T12:20:49.494Z,15.37
2023-05-19T12:23:17.572Z,15.60
2023-05-19T12:25:45.736Z,15.40
2023-05-19T12:28:14.078Z,15.19
2023-05-19T12:30:44.284Z,14.98
2023-05-19T12:33:12.775Z,14.84
2023-05-19T12:35:42.334Z,14.65
2023-05-19T12:38:10.655Z,14.30
2023-05-19T12:40:39.633Z,14.31
2023-05-19T12:43:09.715Z,14.29
2023-05-19T12:45:39.020Z,14.12
2023-05-19T12:48:15.965Z,14.03
2023-05-19T12:50:45.218Z,13.72
2023-05-19T12:53:14.102Z,13.31
2023-05-19T12:55:45.733Z,13.13
2023-05-19T12:58:15.950Z,13.27
2023-05-19T13:00:46.478Z,13.29
2023-05-19T13:03:16.721Z,13.43
2023-05-19T13:05:46.837Z,13.65
2023-05-19T13:08:22.129Z,13.67
2023-05-19T13:10:50.671Z,13.60
2023-05-19T13:13:19.519Z,13.62
2023-05-19T13:15:50.369Z,13.41
2023-05-19T13:18:18.485Z,13.38
2023-05-19T13:20:47.454Z,13.22
2023-05-19T13:23:15.972Z,13.01
2023-05-19T13:25:44.085Z,12.81
2023-05-19T13:28:12.152Z,12.86
2023-05-19T13:30:41.018Z,12.87
2023-05-19T13:33:09.108Z,12.96
2023-05-19T13:35:38.130Z,12.94
2023-05-19T13:38:07.043Z,12.93
2023-05-19T13:40:35.513Z,12.90
2023-05-19T13:43:04.002Z,12.97
2023-05-19T13:45:32.389Z,12.82
2023-05-19T13:48:00.556Z,12.66
2023-05-19T13:50:28.863Z,12.60
2023-05-19T13:52:56.958Z,12.66
2023-05-19T13:55:27.449Z,12.59
2023-05-19T13:57:55.618Z,12.58
2023-05-19T14:00:24.072Z,12.61
2023-05-19T14:02:53.009Z,12.51
2023-05-19T14:05:21.204Z,12.48
2023-05-19T14:07:49.344Z,12.45
2023-05-19T14:10:17.805Z,12.46
2023-05-19T14:13:14.068Z,12.44
2023-05-19T14:15:38.079Z,12.42
2023-05-19T14:18:07.056Z,12.48
2023-05-19T14:20:36.156Z,12.45
2023-05-19T14:23:04.606Z,12.48
2023-05-19T14:25:32.965Z,12.46
2023-05-19T14:28:01.340Z,12.54
2023-05-19T14:30:29.479Z,12.61
2023-05-19T14:32:57.597Z,12.63
2023-05-19T14:35:26.103Z,12.76
2023-05-19T14:37:54.081Z,12.89
2023-05-19T14:40:22.198Z,12.95
2023-05-19T14:42:50.333Z,12.85
2023-05-19T14:45:18.514Z,12.79
2023-05-19T14:47:47.823Z,12.72
2023-05-19T14:50:16.375Z,12.72
2023-05-19T14:52:44.490Z,12.66
2023-05-19T14:55:12.621Z,12.52
2023-05-19T14:57:40.680Z,12.51
2023-05-19T15:00:10.424Z,12.59
2023-05-19T15:02:38.691Z,12.57
2023-05-19T15:05:08.242Z,12.52
2023-05-19T15:07:36.527Z,12.38
2023-05-19T15:10:05.077Z,12.28
2023-05-19T15:12:33.204Z,12.16
2023-05-19T15:15:01.360Z,12.15
2023-05-19T15:17:29.904Z,12.09
2023-05-19T15:19:58.145Z,12.06
2023-05-19T15:22:26.430Z,11.98
2023-05-19T15:25:26.431Z,11.90
2023-05-19T15:27:54.561Z,11.86
2023-05-19T15:30:22.587Z,11.85
2023-05-19T15:32:50.626Z,11.85
2023-05-19T15:35:18.792Z,11.85
2023-05-19T15:37:46.807Z,11.88
2023-05-19T15:40:14.982Z,11.88
2023-05-19T15:42:42.965Z,11.89
2023-05-19T15:45:12.193Z,11.88
2023-05-19T15:47:40.382Z,11.91
2023-05-19T15:50:09.123Z,11.97
2023-05-19T15:52:37.130Z,12.02
2023-05-19T15:55:06.890Z,12.13
2023-05-19T15:57:34.964Z,12.10
2023-05-19T16:00:03.356Z,12.11
2023-05-19T16:02:51.478Z,12.08
2023-05-19T16:05:19.564Z,12.11
2023-05-19T16:07:47.661Z,12.15
2023-05-19T16:10:15.713Z,12.20
2023-05-19T16:12:44.162Z,12.23
2023-05-19T16:15:14.998Z,12.33
2023-05-19T16:17:43.782Z,12.41
2023-05-19T16:20:12.384Z,12.47
2023-05-19T16:22:40.492Z,12.46
2023-05-19T16:25:08.721Z,12.45
2023-05-19T16:27:37.582Z,12.47
2023-05-19T16:30:07.360Z,12.43
2023-05-19T16:32:35.646Z,12.40
2023-05-19T16:35:03.992Z,12.33
2023-05-19T16:37:32.416Z,12.30
2023-05-19T16:40:00.652Z,12.30
2023-05-19T16:42:29.621Z,12.25
2023-05-19T16:44:57.590Z,12.20
2023-05-19T16:47:25.939Z,12.23
2023-05-19T16:49:54.673Z,12.25
2023-05-19T16:52:24.164Z,12.27
2023-05-19T16:54:52.331Z,12.30
2023-05-19T16:57:20.643Z,12.33
2023-05-19T16:59:49.714Z,12.36
2023-05-19T17:02:17.939Z,12.27
2023-05-19T17:04:46.434Z,12.30
2023-05-19T17:07:19.750Z,12.31
2023-05-19T17:09:48.468Z,12.31
2023-05-19T17:12:16.752Z,12.30
2023-05-19T17:14:44.895Z,12.30
2023-05-19T17:17:13.087Z,12.26
2023-05-19T17:19:42.978Z,12.23
2023-05-19T17:22:11.393Z,12.24
2023-05-19T17:24:39.426Z,12.19
2023-05-19T17:27:07.509Z,12.19
2023-05-19T17:29:36.768Z,12.15
2023-05-19T17:32:06.999Z,12.13
2023-05-19T17:34:35.282Z,12.09
2023-05-19T17:37:03.446Z,12.12
2023-05-19T17:39:31.545Z,12.06
2023-05-19T17:41:59.915Z,12.05
2023-05-19T17:44:27.935Z,12.05
2023-05-19T17:46:56.368Z,12.05
2023-05-19T17:49:25.857Z,12.04
2023-05-19T17:51:54.414Z,11.97
2023-05-19T17:54:22.761Z,11.94
2023-05-19T17:56:51.750Z,11.94
2023-05-19T17:59:21.280Z,11.90
2023-05-19T18:01:49.789Z,11.90
2023-05-19T18:04:18.377Z,11.90
2023-05-19T18:06:46.638Z,11.91
2023-05-19T18:09:15.166Z,11.90
2023-05-19T18:11:43.218Z,11.92
2023-05-19T18:14:11.272Z,11.87
2023-05-19T18:16:39.407Z,11.82
2023-05-19T18:19:07.754Z,11.80
2023-05-19T18:21:35.826Z,11.80
2023-05-19T18:24:04.566Z,11.75
2023-05-19T18:26:33.711Z,11.74
2023-05-19T18:29:05.053Z,11.69
2023-05-19T18:31:33.197Z,11.64
2023-05-19T18:34:01.689Z,11.63
2023-05-19T18:36:30.190Z,11.64
2023-05-19T18:38:59.025Z,11.66
2023-05-19T18:41:27.151Z,11.60
2023-05-19T18:43:55.327Z,11.57
2023-05-19T18:46:23.379Z,11.59
2023-05-19T18:48:51.544Z,11.57
2023-05-19T18:51:21.507Z,11.55
2023-05-19T18:53:50.813Z,11.58
2023-05-19T18:56:26.251Z,11.55
2023-05-19T18:58:54.854Z,11.51
2023-05-19T19:01:23.492Z,11.48
2023-05-19T19:03:51.990Z,11.48
2023-05-19T19:06:23.573Z,11.46
2023-05-19T19:08:51.578Z,11.45
2023-05-19T19:11:51.415Z,11.46
2023-05-19T19:14:19.470Z,11.43
2023-05-19T19:16:47.604Z,11.41
2023-05-19T19:19:15.884Z,11.40
2023-05-19T19:21:44.044Z,11.43
2023-05-19T19:24:14.826Z,11.39
2023-05-19T19:26:43.142Z,11.41
2023-05-19T19:29:11.188Z,11.38
2023-05-19T19:31:39.674Z,11.39
2023-05-19T19:34:09.656Z,11.39
2023-05-19T19:36:37.816Z,11.37
2023-05-19T19:39:05.928Z,11.40
2023-05-19T19:41:34.035Z,11.40
2023-05-19T19:44:02.379Z,11.35
2023-05-19T19:46:31.550Z,11.34
2023-05-19T19:49:00.556Z,11.32
2023-05-19T19:51:28.614Z,11.33
2023-05-19T19:53:56.720Z,11.31
2023-05-19T19:56:26.249Z,11.28
2023-05-19T19:58:56.848Z,11.23
2023-05-19T20:01:28.592Z,11.24
2023-05-19T20:03:57.560Z,11.24
2023-05-19T20:06:26.142Z,11.20
2023-05-19T20:08:54.187Z,11.20
2023-05-19T20:11:23.940Z,11.18
2023-05-19T20:13:54.221Z,11.15
2023-05-19T20:16:22.668Z,11.14
2023-05-19T20:18:51.680Z,11.17
2023-05-19T20:21:19.684Z,11.13
2023-05-19T20:23:48.362Z,11.12
2023-05-19T20:26:17.244Z,11.12
2023-05-19T20:28:47.007Z,11.09
2023-05-19T20:31:15.602Z,11.12
2023-05-19T20:33:43.827Z,11.11
2023-05-19T20:36:11.944Z,11.10
2023-05-19T20:38:42.669Z,11.08
2023-05-19T20:41:11.956Z,11.08
2023-05-19T20:43:40.198Z,11.06
2023-05-19T20:46:10.064Z,11.06
2023-05-19T20:48:39.629Z,11.08
2023-05-19T20:51:07.553Z,11.07
2023-05-19T20:53:36.545Z,11.10
2023-05-19T20:56:06.969Z,11.08
2023-05-19T20:58:35.024Z,11.06
2023-05-19T21:01:03.491Z,11.01
2023-05-19T21:03:32.243Z,11.00
2023-05-19T21:06:00.990Z,11.00
2023-05-19T21:08:29.915Z,10.98
2023-05-19T21:10:57.906Z,10.97
2023-05-19T21:13:26.019Z,10.97
2023-05-19T21:15:54.132Z,10.97
2023-05-19T21:18:22.193Z,10.97
2023-05-19T21:20:50.248Z,10.95
2023-05-19T21:23:18.267Z,10.97
2023-05-19T21:25:46.363Z,11.00
2023-05-19T21:28:14.469Z,11.00
2023-05-19T21:30:42.519Z,10.98
2023-05-19T21:33:12.146Z,10.97
2023-05-19T21:35:40.352Z,10.96
2023-05-19T21:38:19.567Z,10.95
2023-05-19T21:40:52.741Z,10.92
2023-05-19T21:43:21.980Z,10.92
2023-05-19T21:45:50.074Z,10.91
2023-05-19T21:48:18.179Z,10.90
2023-05-19T21:50:46.254Z,10.93
2023-05-19T21:53:14.162Z,10.96
2023-05-19T21:55:42.180Z,10.96
2023-05-19T21:58:11.589Z,10.97
2023-05-19T22:00:39.679Z,10.97
2023-05-19T22:03:07.921Z,10.97
2023-05-19T22:05:38.207Z,10.96
2023-05-19T22:08:06.431Z,10.98
2023-05-19T22:10:35.219Z,10.99
2023-05-19T22:13:03.466Z,10.98
2023-05-19T22:15:31.530Z,10.96
2023-05-19T22:17:59.545Z,10.96
2023-05-19T22:20:27.788Z,10.96
2023-05-19T22:22:56.072Z,10.97
2023-05-19T22:25:24.076Z,10.96
2023-05-19T22:27:52.291Z,10.95
2023-05-19T22:30:20.273Z,10.94
2023-05-19T22:32:48.289Z,10.96
2023-05-19T22:35:16.349Z,10.91
2023-05-19T22:37:44.397Z,10.93
2023-05-19T22:40:12.719Z,10.93
2023-05-19T22:42:41.134Z,10.93
2023-05-19T22:45:09.723Z,10.91
2023-05-19T22:47:37.909Z,10.91
2023-05-19T22:50:09.984Z,10.91
2023-05-19T22:52:38.140Z,10.93
2023-05-19T22:55:06.928Z,10.92
2023-05-19T22:57:34.947Z,10.92
2023-05-19T23:00:03.973Z,10.90
2023-05-19T23:02:32.280Z,10.92
2023-05-19T23:05:00.635Z,10.89
2023-05-19T23:07:28.646Z,10.93
2023-05-19T23:09:56.687Z,10.92
2023-05-19T23:12:24.645Z,10.92
2023-05-19T23:14:52.923Z,10.93
2023-05-19T23:17:20.931Z,10.94
2023-05-19T23:19:49.004Z,10.98
2023-05-19T23:22:17.452Z,10.95
2023-05-19T23:24:45.529Z,10.92
2023-05-19T23:27:13.627Z,10.95
2023-05-19T23:29:41.666Z,10.91
2023-05-19T23:32:09.678Z,10.91
2023-05-19T23:34:37.654Z,10.89
2023-05-19T23:37:05.931Z,10.90
2023-05-19T23:39:34.429Z,10.89
2023-05-19T23:42:02.412Z,10.89
2023-05-19T23:44:30.504Z,10.89
2023-05-19T23:46:58.484Z,10.87
2023-05-19T23:49:26.508Z,10.92
2023-05-19T23:51:54.727Z,10.90
2023-05-19T23:54:23.470Z,10.91
2023-05-19T23:56:53.120Z,10.92
2023-05-19T23:59:21.169Z,10.92
